KAWO Airport Information

Runway Information
Runway 11 Length 3500 ft width 75 ft
Elevation 129 ft Threshold 0 ft Heading 127
Runway 29 Length 3500 ft Width 75 ft
Elevation 124 ft Threshold 0 ft Heading 307
Runway 16 Length 5333 ft width 100 ft
Elevation 137 ft Threshold 0 ft Heading 179
Runway 34 Length 5333 ft Width 100 ft
Elevation 123 ft Threshold 0 ft Heading 359
Airport Frequencies
Type AWOS Name AWOS 3 Frequency 135.625 MHZ
Type CNTR Name SEATTLE CN Frequency 128.5 MHZ
Type UNIC Name CTAF/UNICO Frequency 122.7 MHZ
Airport Navaids
Airport Weather Information & NOTAM
ADDS - METARS form results

(2043 UTC 23 February 2019)
Data provider http://aviationweather.gov/metar/data/
 
METAR text: KAWO 231956Z AUTO 14008KT 10SM OVC023 06/02 A3013 RMK AO2 SLP206 T00560022
Conditions at: KAWO (ARLINGTON MUNI , WA, US) observed 1956 UTC 23 February 2019
Temperature: 5.6°C (42°F)
Dewpoint: 2.2°C (36°F) [RH = 79%]
Pressure (altimeter): 30.13 inches Hg (1020.4 mb)
[Sea-level pressure: 1020.6 mb]
Winds: from the SE (140 degrees) at 9 MPH (8 knots; 4.1 m/s)
Visibility: 10 or more miles (16+ km)
Ceiling: 2300 feet AGL
Clouds: overcast cloud deck at 2300 feet AGL
Weather: automated observation with no human augmentation;
there may or may not be significant weather present at this time